Time;durP1;ratioP1;P1;durP2;ratioP2;P2;SDS_P1;SDS_P2;PMS_P1;PMS_P2;Temp;Humidity;BMP_temperature;BMP_pressure;BME280_temperature;BME280_humidity;BME280_pressure;Samples;Min_cycle;Max_cycle;Signal;HPM_P1;HPM_P2
2022/05/26 00:00:50;;;;;;;0.32;0.32;;;;;;;16.08;53.28;98944.88;4170116;28;20647;-59
2022/05/26 00:02:52;;;;;;;0.30;0.30;;;;;;;16.16;52.82;98936.88;4168937;28;20217;-59
2022/05/26 00:04:53;;;;;;;0.20;0.20;;;;;;;16.10;53.02;98943.50;4167584;28;20232;-59
2022/05/26 00:06:56;;;;;;;0.50;0.43;;;;;;;16.09;52.93;98939.06;4168879;28;20201;-59
2022/05/26 00:08:58;;;;;;;0.40;0.40;;;;;;;16.03;53.28;98934.66;4169132;28;20201;-59
2022/05/26 00:11:00;;;;;;;0.85;0.73;;;;;;;16.06;53.28;98939.66;4166652;28;20634;-59
2022/05/26 00:13:02;;;;;;;0.73;0.60;;;;;;;15.97;53.22;98944.03;4171013;28;20215;-59
2022/05/26 00:15:05;;;;;;;0.32;0.32;;;;;;;15.99;53.51;98939.09;4168371;28;20216;-59
2022/05/26 00:17:07;;;;;;;0.40;0.40;;;;;;;16.00;53.45;98935.22;4170298;28;20208;-59
2022/05/26 00:19:09;;;;;;;0.40;0.40;;;;;;;15.97;53.29;98941.28;4166771;28;20201;-58
2022/05/26 00:21:11;;;;;;;0.30;0.30;;;;;;;16.02;53.27;98944.03;4169063;28;20255;-58
2022/05/26 00:23:12;;;;;;;0.30;0.30;;;;;;;16.03;53.44;98945.69;4167960;28;20212;-59
2022/05/26 00:25:14;;;;;;;0.30;0.30;;;;;;;16.06;53.00;98950.69;4168372;28;20239;-59
2022/05/26 00:27:15;;;;;;;0.47;0.40;;;;;;;16.04;53.24;98952.88;4167233;28;20208;-59
2022/05/26 00:29:17;;;;;;;0.38;0.38;;;;;;;15.97;53.36;98946.78;4166498;28;20212;-59
2022/05/26 00:31:19;;;;;;;0.40;0.40;;;;;;;16.05;53.20;98953.72;4171071;28;20279;-58
2022/05/26 00:33:22;;;;;;;0.30;0.30;;;;;;;16.03;53.59;98956.75;4168483;28;20201;-59
2022/05/26 00:35:23;;;;;;;0.40;0.40;;;;;;;15.98;53.34;98954.00;4168992;28;20222;-59
2022/05/26 00:37:25;;;;;;;0.65;0.40;;;;;;;15.95;53.87;98962.81;4170582;28;20688;-58
2022/05/26 00:39:27;;;;;;;0.57;0.57;;;;;;;15.96;53.59;98961.69;4170903;28;20766;-58
2022/05/26 00:41:29;;;;;;;0.40;0.40;;;;;;;15.87;53.58;98957.00;4166681;28;20201;-58
2022/05/26 00:43:30;;;;;;;0.55;0.50;;;;;;;15.83;53.56;98965.00;4168003;28;20572;-58
2022/05/26 00:45:58;;;;;;;1.90;1.23;;;;;;;15.77;53.78;98957.78;4170998;28;20626;-59
2022/05/26 00:48:00;;;;;;;0.85;0.85;;;;;;;15.87;53.79;98957.84;4163574;28;20216;-59
2022/05/26 00:50:06;;;;;;;0.32;0.32;;;;;;;15.84;53.69;98963.88;4167709;28;20215;-58
2022/05/26 00:52:12;;;;;;;0.60;0.40;;;;;;;15.92;53.55;98965.28;4168823;28;20231;-58
2022/05/26 00:54:17;;;;;;;0.43;0.40;;;;;;;15.88;53.89;98956.72;4166702;28;20211;-59
2022/05/26 00:56:25;;;;;;;0.35;0.35;;;;;;;15.81;54.01;98958.91;4169280;28;20208;-59
2022/05/26 00:58:31;;;;;;;0.50;0.40;;;;;;;15.82;53.91;98960.56;4163475;28;20203;-58
2022/05/26 01:00:35;;;;;;;0.60;0.60;;;;;;;15.86;53.98;98956.19;4167370;28;20234;-59
2022/05/26 01:02:49;;;;;;;0.50;0.40;;;;;;;15.81;54.23;98964.44;4165868;28;20196;-58
2022/05/26 01:04:53;;;;;;;0.40;0.40;;;;;;;15.91;54.18;98958.13;4168653;28;20189;-60
2022/05/26 01:07:07;;;;;;;1.08;0.50;;;;;;;15.83;54.29;98970.50;4167336;28;20222;-60
2022/05/26 01:09:09;;;;;;;1.02;0.45;;;;;;;15.80;54.20;98965.56;4166781;28;20228;-60
2022/05/26 01:11:10;;;;;;;0.40;0.40;;;;;;;15.78;54.23;98965.00;4166605;28;20347;-61
2022/05/26 01:13:15;;;;;;;0.40;0.40;;;;;;;15.84;54.25;98974.13;4164874;28;20204;-60
2022/05/26 01:15:19;;;;;;;0.85;0.50;;;;;;;15.82;54.16;98960.56;4167175;28;20326;-58
2022/05/26 01:17:46;;;;;;;0.47;0.47;;;;;;;15.77;54.73;98979.88;4167570;28;20218;-59
2022/05/26 01:20:16;;;;;;;0.57;0.52;;;;;;;15.84;54.23;98969.41;4166568;28;20264;-60
2022/05/26 01:22:39;;;;;;;0.70;0.70;;;;;;;15.88;54.53;98970.53;4167204;28;20200;-60
2022/05/26 01:25:02;;;;;;;0.45;0.45;;;;;;;15.88;54.77;98962.25;4167679;28;21097;-60
2022/05/26 01:27:11;;;;;;;0.50;0.50;;;;;;;15.85;54.87;98976.59;4166170;28;20203;-62
2022/05/26 01:29:35;;;;;;;1.45;0.52;;;;;;;15.86;54.76;98961.69;4178985;28;20207;-61
2022/05/26 01:31:57;;;;;;;0.40;0.40;;;;;;;15.83;54.81;98966.94;4167798;28;20695;-61
2022/05/26 01:34:06;;;;;;;0.22;0.22;;;;;;;15.79;55.18;98974.94;4165041;28;20226;-59
2022/05/26 01:36:20;;;;;;;0.30;0.30;;;;;;;15.84;54.83;98969.41;4166170;28;20215;-59
2022/05/26 01:38:42;;;;;;;0.40;0.40;;;;;;;15.83;54.97;98970.50;4166246;28;20207;-62
2022/05/26 01:40:46;;;;;;;0.40;0.40;;;;;;;15.74;55.17;98977.66;4166787;28;20226;-59
2022/05/26 01:42:58;;;;;;;0.40;0.40;;;;;;;15.81;55.08;98967.19;4166568;28;20197;-60
2022/05/26 01:45:08;;;;;;;0.40;0.40;;;;;;;15.78;55.54;98975.19;4178811;28;20242;-60
2022/05/26 01:47:18;;;;;;;0.68;0.68;;;;;;;15.73;55.64;98969.66;4169617;28;20207;-61
2022/05/26 01:49:30;;;;;;;0.40;0.40;;;;;;;15.80;55.69;98982.09;4182246;28;20609;-60
2022/05/26 01:51:41;;;;;;;0.32;0.32;;;;;;;15.83;55.92;98973.28;4168284;28;20195;-59
2022/05/26 01:53:54;;;;;;;0.30;0.30;;;;;;;15.90;55.52;98967.50;4163070;28;20232;-60
2022/05/26 01:56:27;;;;;;;0.45;0.30;;;;;;;15.79;55.71;98960.28;4167318;28;20215;-61
2022/05/26 01:59:21;;;;;;;0.57;0.57;;;;;;;15.78;55.75;98965.00;4165865;28;20202;-59
2022/05/26 02:01:27;;;;;;;0.20;0.20;;;;;;;15.80;56.12;98979.34;4165262;28;20833;-62
2022/05/26 02:03:31;;;;;;;0.40;0.40;;;;;;;15.76;56.30;98972.69;4169759;28;20296;-60
2022/05/26 02:05:35;;;;;;;1.00;0.68;;;;;;;15.80;55.87;98973.00;4169538;28;20706;-60
2022/05/26 02:07:42;;;;;;;0.40;0.40;;;;;;;15.77;56.28;98973.53;4165101;28;20209;-60
2022/05/26 02:09:44;;;;;;;1.05;0.60;;;;;;;15.76;56.06;98978.22;4170039;28;20204;-58
2022/05/26 02:11:55;;;;;;;0.40;0.40;;;;;;;15.79;56.10;98974.94;4170826;28;20309;-58
2022/05/26 02:14:14;;;;;;;0.40;0.40;;;;;;;15.81;56.11;98969.97;4171101;28;20582;-61
2022/05/26 02:16:20;;;;;;;0.40;0.40;;;;;;;15.69;56.56;98983.16;4169042;28;20223;-58
2022/05/26 02:18:39;;;;;;;0.50;0.50;;;;;;;15.59;57.25;98972.13;4187629;28;20214;-59
2022/05/26 02:20:56;;;;;;;0.50;0.50;;;;;;;15.56;56.90;98969.88;4174743;28;20224;-62
2022/05/26 02:23:30;;;;;;;0.50;0.50;;;;;;;15.53;57.27;98977.88;4167391;28;20192;-60
2022/05/26 02:25:34;;;;;;;0.50;0.50;;;;;;;15.53;57.32;98973.19;4161514;28;20229;-61
2022/05/26 02:27:36;;;;;;;0.38;0.38;;;;;;;15.52;57.44;98976.22;4173007;28;20763;-61
2022/05/26 02:29:59;;;;;;;0.43;0.43;;;;;;;15.57;57.40;98974.28;4167586;28;20351;-61
2022/05/26 02:32:03;;;;;;;0.90;0.50;;;;;;;15.60;57.36;98973.78;4168250;28;20668;-61
2022/05/26 02:34:05;;;;;;;0.50;0.50;;;;;;;15.64;57.45;98979.56;4163576;28;20211;-60
2022/05/26 02:36:06;;;;;;;0.40;0.40;;;;;;;15.63;57.52;98987.00;4166450;28;20695;-61
2022/05/26 02:38:14;;;;;;;0.40;0.40;;;;;;;15.62;57.75;98982.59;4168216;28;20210;-59
2022/05/26 02:40:16;;;;;;;0.85;0.47;;;;;;;15.55;58.16;98982.03;4170098;28;20238;-60
2022/05/26 02:42:19;;;;;;;2.20;0.47;;;;;;;15.50;58.22;98982.00;4169770;28;20200;-60
2022/05/26 02:44:22;;;;;;;0.60;0.60;;;;;;;15.48;58.31;98981.44;4172239;28;20212;-59
2022/05/26 02:46:37;;;;;;;0.40;0.40;;;;;;;15.40;58.53;98984.72;4171224;28;20208;-59
2022/05/26 02:49:04;;;;;;;0.40;0.40;;;;;;;15.38;58.56;98991.63;4165876;28;20655;-61
2022/05/26 02:51:15;;;;;;;0.40;0.40;;;;;;;15.34;58.74;98985.81;4170747;28;20581;-60
2022/05/26 02:53:20;;;;;;;0.50;0.40;;;;;;;15.37;58.43;98984.44;4170861;28;20295;-59
2022/05/26 02:55:43;;;;;;;0.40;0.40;;;;;;;15.39;58.94;98994.09;4169463;28;22732;-60
2022/05/26 02:58:03;;;;;;;0.40;0.40;;;;;;;15.50;58.94;98995.78;4169228;28;20204;-62
2022/05/26 03:00:13;;;;;;;0.50;0.50;;;;;;;15.36;58.86;98993.81;4169321;28;20560;-60
2022/05/26 03:02:22;;;;;;;0.30;0.30;;;;;;;15.30;59.22;98984.63;4170590;28;20219;-58
2022/05/26 03:04:41;;;;;;;0.50;0.50;;;;;;;15.33;59.10;98991.59;4168814;28;20234;-59
2022/05/26 03:06:48;;;;;;;0.38;0.38;;;;;;;15.23;59.54;99000.59;4181351;28;20290;-61
2022/05/26 03:08:50;;;;;;;0.40;0.40;;;;;;;15.24;59.58;98998.69;4157546;28;20212;-61
2022/05/26 03:10:55;;;;;;;0.50;0.50;;;;;;;15.12;60.20;98992.56;4173110;28;20216;-59
2022/05/26 03:13:01;;;;;;;0.40;0.40;;;;;;;15.29;59.59;98994.00;4182710;28;20199;-60
2022/05/26 03:15:06;;;;;;;0.43;0.43;;;;;;;15.18;59.80;98980.44;4169814;28;20220;-59
2022/05/26 03:17:07;;;;;;;0.50;0.50;;;;;;;15.16;59.92;98988.97;4168791;28;20295;-59
2022/05/26 03:19:09;;;;;;;0.30;0.30;;;;;;;15.09;60.42;98993.09;4173313;28;20245;-61
2022/05/26 03:21:11;;;;;;;0.30;0.30;;;;;;;15.12;60.34;98998.91;4173004;28;20224;-60
2022/05/26 03:23:13;;;;;;;1.35;0.50;;;;;;;14.93;60.85;98994.94;4168194;28;20295;-60
2022/05/26 03:25:15;;;;;;;6.10;0.43;;;;;;;15.08;60.28;98992.25;4167875;28;20299;-59
2022/05/26 03:27:16;;;;;;;0.45;0.45;;;;;;;15.00;61.05;98995.53;4169121;28;20297;-61
2022/05/26 03:29:18;;;;;;;0.43;0.43;;;;;;;15.02;60.80;98993.31;4168153;28;20208;-59
2022/05/26 03:31:20;;;;;;;0.50;0.50;;;;;;;14.94;61.02;98996.59;4169280;28;20224;-59
2022/05/26 03:33:21;;;;;;;0.35;0.35;;;;;;;14.88;61.40;98997.66;4166833;28;20871;-59
2022/05/26 03:42:25;;;;;;;0.40;0.40;;;;;;;15.00;60.88;99006.56;4166686;28;20243;-60
2022/05/26 03:44:28;;;;;;;0.50;0.50;;;;;;;14.93;61.11;99003.19;4169353;28;20204;-60
2022/05/26 03:46:29;;;;;;;0.40;0.40;;;;;;;14.89;61.13;99015.03;4166382;28;20204;-60
2022/05/26 03:48:31;;;;;;;5.50;1.65;;;;;;;14.78;61.65;99008.63;4169166;28;20302;-61
2022/05/26 03:50:33;;;;;;;0.30;0.30;;;;;;;14.86;61.68;99010.88;4166681;28;20232;-59
2022/05/26 03:52:35;;;;;;;0.65;0.50;;;;;;;14.75;61.85;99020.16;4168280;28;20290;-61
2022/05/26 03:54:37;;;;;;;0.55;0.50;;;;;;;14.78;61.80;99008.63;4180449;28;20203;-60
2022/05/26 03:56:38;;;;;;;0.40;0.40;;;;;;;14.83;61.78;99011.38;4168633;28;20221;-59
2022/05/26 03:58:40;;;;;;;0.73;0.60;;;;;;;14.83;61.74;99022.41;4167144;28;20290;-59
2022/05/26 04:00:41;;;;;;;0.50;0.50;;;;;;;14.72;62.25;99017.09;4180036;28;20231;-62
2022/05/26 04:02:43;;;;;;;0.55;0.55;;;;;;;14.67;62.31;99017.06;4170380;28;20219;-60
2022/05/26 04:04:44;;;;;;;0.43;0.43;;;;;;;14.71;62.23;99018.19;4170465;28;20204;-60
2022/05/26 04:06:46;;;;;;;0.60;0.60;;;;;;;14.72;62.39;99026.22;4172034;28;20280;-60
2022/05/26 04:08:48;;;;;;;4.47;1.05;;;;;;;14.72;62.39;99026.22;4169593;28;20656;-60
2022/05/26 04:10:49;;;;;;;0.63;0.63;;;;;;;14.83;62.45;99027.91;4167286;28;20236;-61
2022/05/26 04:12:51;;;;;;;0.65;0.50;;;;;;;14.76;62.61;99032.00;4167770;28;20200;-61
2022/05/26 04:14:53;;;;;;;0.65;0.65;;;;;;;14.71;62.53;99030.03;4170461;28;20291;-61
2022/05/26 04:16:54;;;;;;;0.43;0.43;;;;;;;14.73;62.45;99033.38;4169998;28;20695;-61
2022/05/26 04:18:56;;;;;;;0.50;0.50;;;;;;;14.78;62.52;99027.91;4167271;28;20200;-60
2022/05/26 04:21:05;;;;;;;0.32;0.32;;;;;;;14.83;62.42;99043.63;4167050;28;20227;-60
2022/05/26 04:23:07;;;;;;;1.08;0.60;;;;;;;14.91;62.67;99034.88;4167458;28;20327;-60
2022/05/26 04:25:09;;;;;;;0.40;0.40;;;;;;;14.86;62.61;99038.44;4167786;28;20205;-62
2022/05/26 04:27:11;;;;;;;3.28;0.47;;;;;;;14.81;62.80;99046.66;4169577;28;20291;-60
2022/05/26 04:29:15;;;;;;;1.77;0.60;;;;;;;14.88;62.57;99044.50;4167317;28;20229;-61
2022/05/26 04:31:17;;;;;;;0.40;0.40;;;;;;;14.92;62.54;99037.38;4168430;28;20256;-59
2022/05/26 04:33:19;;;;;;;0.40;0.40;;;;;;;14.83;62.96;99043.63;4166943;28;20819;-61
2022/05/26 04:35:21;;;;;;;2.03;0.70;;;;;;;14.65;63.43;99039.38;4178903;28;20235;-61
2022/05/26 04:37:24;;;;;;;0.50;0.50;;;;;;;14.76;63.11;99043.84;4166084;28;20300;-61
2022/05/26 04:39:25;;;;;;;0.75;0.50;;;;;;;14.75;63.14;99046.88;4167213;28;20660;-61
2022/05/26 04:41:27;;;;;;;0.40;0.40;;;;;;;14.76;63.47;99043.84;4164679;28;20219;-61
2022/05/26 04:43:31;;;;;;;2.10;0.70;;;;;;;14.83;63.26;99049.97;4168064;28;20214;-60
2022/05/26 04:45:32;;;;;;;0.50;0.50;;;;;;;14.87;63.21;99058.53;4170644;28;20223;-62
2022/05/26 04:47:34;;;;;;;0.47;0.47;;;;;;;14.90;63.17;99055.25;4167947;28;20743;-61
2022/05/26 04:49:37;;;;;;;0.40;0.40;;;;;;;14.94;63.09;99045.34;4168733;28;20227;-61
2022/05/26 04:51:39;;;;;;;0.47;0.47;;;;;;;14.84;63.27;99050.81;4167751;28;20196;-60
2022/05/26 04:53:41;;;;;;;0.57;0.57;;;;;;;14.84;63.71;99048.06;4165542;28;20717;-59
2022/05/26 04:55:43;;;;;;;0.55;0.55;;;;;;;14.91;63.41;99049.47;4165186;28;20307;-60
2022/05/26 04:57:44;;;;;;;0.45;0.45;;;;;;;14.91;63.56;99051.41;4166705;28;20288;-62
2022/05/26 04:59:46;;;;;;;0.57;0.57;;;;;;;15.03;63.43;99050.09;4165260;28;20208;-61
2022/05/26 05:01:48;;;;;;;0.30;0.30;;;;;;;15.05;63.25;99063.63;4166748;28;20220;-59
2022/05/26 05:03:50;;;;;;;0.47;0.47;;;;;;;15.09;63.02;99059.25;4167107;28;20204;-60
2022/05/26 05:05:51;;;;;;;0.50;0.50;;;;;;;15.10;63.27;99056.22;4166914;28;20315;-61
2022/05/26 05:07:53;;;;;;;1.30;0.60;;;;;;;15.05;63.62;99064.47;4167624;28;20203;-60
2022/05/26 05:09:54;;;;;;;0.50;0.50;;;;;;;15.07;63.41;99062.28;4167221;28;20230;-60
2022/05/26 05:11:57;;;;;;;2.17;0.50;;;;;;;15.14;63.17;99065.63;4167215;28;20218;-58
2022/05/26 05:14:02;;;;;;;0.40;0.40;;;;;;;15.15;63.23;99075.56;4168901;28;20212;-61
2022/05/26 05:16:06;;;;;;;0.30;0.30;;;;;;;15.20;63.00;99067.31;4169697;28;20311;-60
2022/05/26 05:18:08;;;;;;;0.85;0.52;;;;;;;15.25;63.50;99083.91;4169147;28;20627;-59
2022/05/26 05:20:10;;;;;;;0.40;0.40;;;;;;;15.23;63.27;99077.81;4167803;28;20335;-60
2022/05/26 05:22:21;;;;;;;0.52;0.50;;;;;;;15.31;63.11;99090.28;4169388;28;20287;-60
2022/05/26 05:24:24;;;;;;;0.95;0.60;;;;;;;15.35;63.46;99085.94;4168287;28;20203;-61
2022/05/26 05:26:28;;;;;;;0.50;0.50;;;;;;;15.26;63.11;99091.09;4167655;28;20226;-60
2022/05/26 05:28:36;;;;;;;1.55;0.82;;;;;;;15.33;63.17;99088.09;4168194;28;20299;-60
2022/05/26 05:30:41;;;;;;;0.55;0.43;;;;;;;15.37;63.22;99101.09;4168269;28;20215;-59
2022/05/26 05:32:51;;;;;;;0.57;0.40;;;;;;;15.34;63.40;99101.63;4167315;28;20200;-61
2022/05/26 05:34:59;;;;;;;0.70;0.70;;;;;;;15.33;63.44;99099.97;4171325;28;20204;-60
2022/05/26 05:37:01;;;;;;;0.65;0.52;;;;;;;15.30;63.46;99100.47;4173262;28;20215;-60
2022/05/26 05:39:03;;;;;;;1.15;0.63;;;;;;;15.40;63.33;99106.09;4170766;28;20199;-62
2022/05/26 05:41:07;;;;;;;0.63;0.63;;;;;;;15.46;63.36;99102.28;4186526;28;20219;-61
2022/05/26 05:43:08;;;;;;;0.65;0.65;;;;;;;15.38;63.09;99108.28;4168686;28;20208;-60
2022/05/26 05:45:10;;;;;;;0.50;0.50;;;;;;;15.42;63.16;99108.59;4171288;28;20207;-61
2022/05/26 05:47:12;;;;;;;0.68;0.57;;;;;;;15.47;63.07;99103.94;4171950;28;20576;-60
2022/05/26 05:49:13;;;;;;;0.55;0.55;;;;;;;15.47;63.30;99111.34;4182103;28;20216;-59
2022/05/26 05:51:16;;;;;;;0.55;0.55;;;;;;;15.56;62.92;99113.34;4170482;28;20227;-60
2022/05/26 05:53:18;;;;;;;8.60;0.80;;;;;;;15.66;62.98;99115.34;4166413;28;20290;-62
2022/05/26 05:55:20;;;;;;;0.50;0.50;;;;;;;15.73;62.83;99111.25;4184028;28;20210;-61
2022/05/26 05:57:21;;;;;;;0.65;0.60;;;;;;;15.73;62.68;99118.69;4182276;28;20227;-61
2022/05/26 05:59:23;;;;;;;0.52;0.50;;;;;;;15.63;62.71;99115.88;4163659;28;20296;-61
2022/05/26 06:01:25;;;;;;;1.08;0.77;;;;;;;15.56;62.89;99120.81;4170694;28;20377;-60
2022/05/26 06:03:34;;;;;;;0.40;0.40;;;;;;;15.51;63.43;99124.34;4168445;28;20331;-61
2022/05/26 06:05:36;;;;;;;0.40;0.40;;;;;;;15.59;63.10;99115.59;4171369;28;20656;-60
2022/05/26 06:07:40;;;;;;;0.60;0.60;;;;;;;15.63;63.61;99133.25;4166204;28;20303;-63
2022/05/26 06:09:42;;;;;;;1.20;0.50;;;;;;;15.60;63.62;99125.53;4168326;28;20309;-61
2022/05/26 06:11:44;;;;;;;2.08;0.50;;;;;;;15.47;63.67;99117.72;4175587;28;20564;-59
2022/05/26 06:13:46;;;;;;;0.60;0.60;;;;;;;15.62;63.47;99125.25;4169451;28;20295;-60
2022/05/26 06:15:47;;;;;;;0.40;0.40;;;;;;;15.65;64.09;99125.56;4169111;28;20207;-59
2022/05/26 06:17:49;;;;;;;0.47;0.47;;;;;;;15.76;63.77;99129.19;4168828;28;20205;-58
2022/05/26 06:19:51;;;;;;;0.40;0.40;;;;;;;15.86;63.65;99138.34;4170926;28;20228;-58
2022/05/26 06:21:53;;;;;;;0.30;0.30;;;;;;;15.99;63.44;99135.09;4171533;28;20208;-61
2022/05/26 06:23:56;;;;;;;0.50;0.50;;;;;;;15.97;62.83;99136.47;4170789;28;20196;-61
2022/05/26 06:25:59;;;;;;;0.50;0.50;;;;;;;16.13;62.92;99133.50;4170229;28;20211;-61
2022/05/26 06:30:21;;;;;;;0.70;0.70;;;;;;;16.10;63.04;99138.72;4169181;28;20230;-60
2022/05/26 06:37:13;;;;;;;0.40;0.40;;;;;;;16.41;62.56;99152.41;4171991;28;20208;-61
2022/05/26 06:39:15;;;;;;;0.77;0.73;;;;;;;16.42;62.42;99143.00;4169790;28;20666;-61
2022/05/26 06:43:44;;;;;;;0.30;0.30;;;;;;;16.51;62.70;99157.97;4178522;28;20252;-63
2022/05/26 06:45:48;;;;;;;0.30;0.30;;;;;;;16.72;62.77;99159.66;4169665;28;20291;-61
2022/05/26 06:47:49;;;;;;;0.40;0.40;;;;;;;16.69;61.69;99157.44;4185800;28;20733;-61
2022/05/26 06:49:51;;;;;;;0.55;0.55;;;;;;;16.70;61.60;99161.84;4167871;28;20238;-61
2022/05/26 06:51:53;;;;;;;0.35;0.35;;;;;;;16.84;61.92;99167.69;4167245;28;22461;-61
2022/05/26 06:53:55;;;;;;;0.50;0.50;;;;;;;16.71;61.45;99166.31;4172051;28;20568;-61
2022/05/26 06:55:57;;;;;;;1.30;1.20;;;;;;;16.74;61.47;99167.66;4169236;28;20204;-61
2022/05/26 06:57:58;;;;;;;0.93;0.50;;;;;;;16.87;61.39;99173.50;4172660;28;20283;-61
2022/05/26 07:00:00;;;;;;;1.35;0.50;;;;;;;16.88;61.67;99179.88;4169478;28;20223;-62
2022/05/26 07:02:04;;;;;;;0.40;0.40;;;;;;;17.03;61.86;99172.41;4173493;28;20204;-62
2022/05/26 07:04:06;;;;;;;0.98;0.50;;;;;;;16.89;61.05;99178.78;4169541;28;20211;-59
2022/05/26 07:06:19;;;;;;;0.30;0.30;;;;;;;16.99;61.18;99177.66;4172563;28;21064;-59
2022/05/26 07:08:21;;;;;;;0.70;0.70;;;;;;;16.95;61.30;99175.72;4170042;28;20207;-58
2022/05/26 07:10:22;;;;;;;0.47;0.40;;;;;;;16.93;61.41;99183.47;4169277;28;20232;-59
2022/05/26 07:12:24;;;;;;;0.40;0.40;;;;;;;16.92;61.28;99187.34;4170527;28;20204;-58
2022/05/26 07:14:26;;;;;;;0.57;0.50;;;;;;;16.85;61.32;99186.78;4171322;28;20210;-59
2022/05/26 07:16:28;;;;;;;0.25;0.25;;;;;;;16.66;60.85;99182.88;4172447;28;20224;-59
2022/05/26 07:18:30;;;;;;;0.52;0.50;;;;;;;16.52;61.36;99190.03;4169442;28;20208;-58
2022/05/26 07:20:33;;;;;;;3.05;1.05;;;;;;;16.46;61.68;99191.09;4168580;28;20584;-59
2022/05/26 07:22:35;;;;;;;1.90;0.30;;;;;;;16.63;61.64;99188.94;4166739;28;20205;-58
2022/05/26 07:24:38;;;;;;;1.20;0.20;;;;;;;16.72;62.41;99195.59;4164563;28;20567;-58
2022/05/26 07:26:40;;;;;;;0.80;0.40;;;;;;;16.69;62.01;99198.91;4171170;28;20201;-59
2022/05/26 07:28:42;;;;;;;0.40;0.40;;;;;;;16.80;62.37;99205.28;4169368;28;20229;-59
2022/05/26 07:30:43;;;;;;;2.38;0.68;;;;;;;16.97;62.36;99212.22;4168431;28;20216;-58
2022/05/26 07:32:45;;;;;;;0.43;0.43;;;;;;;16.97;61.40;99208.63;4166702;28;20601;-58
2022/05/26 07:34:48;;;;;;;1.45;0.30;;;;;;;16.99;61.47;99207.25;4169789;28;20722;-58
2022/05/26 07:41:55;;;;;;;0.63;0.63;;;;;;;16.89;61.44;99198.94;4160071;28;20205;-58
2022/05/26 07:43:58;;;;;;;0.38;0.38;;;;;;;16.88;62.04;99202.81;4158183;28;20732;-59
2022/05/26 07:46:00;;;;;;;0.60;0.60;;;;;;;16.82;61.89;99198.38;4172583;28;20208;-59
2022/05/26 07:48:02;;;;;;;1.00;0.60;;;;;;;16.87;61.80;99198.38;4170744;28;20620;-60
2022/05/26 07:50:06;;;;;;;0.50;0.50;;;;;;;16.76;61.66;99202.22;4173327;28;20688;-62
2022/05/26 07:52:09;;;;;;;0.55;0.40;;;;;;;16.80;62.34;99195.06;4173371;28;20201;-59
2022/05/26 07:54:10;;;;;;;0.22;0.22;;;;;;;16.84;62.19;99207.22;4168221;28;20284;-59
2022/05/26 07:56:12;;;;;;;0.40;0.40;;;;;;;16.67;62.09;99212.16;4166306;28;20200;-61
2022/05/26 07:58:13;;;;;;;0.70;0.70;;;;;;;16.74;62.67;99211.88;4166726;28;20207;-59
2022/05/26 08:00:17;;;;;;;0.55;0.43;;;;;;;16.78;62.56;99208.34;4164223;28;20224;-60
2022/05/26 08:02:20;;;;;;;0.60;0.60;;;;;;;16.73;62.19;99216.59;4168158;28;20660;-60
2022/05/26 08:04:22;;;;;;;0.50;0.50;;;;;;;16.80;62.23;99222.72;4168019;28;20223;-60
2022/05/26 08:06:23;;;;;;;0.93;0.70;;;;;;;16.82;62.62;99214.97;4164211;28;20609;-60
2022/05/26 08:08:26;;;;;;;0.88;0.50;;;;;;;16.68;63.13;99216.59;4165813;28;20200;-61
2022/05/26 08:10:27;;;;;;;0.43;0.43;;;;;;;16.75;62.72;99213.56;4163898;28;20319;-60
2022/05/26 08:12:29;;;;;;;0.50;0.50;;;;;;;16.68;63.42;99219.34;4168601;28;20254;-59
2022/05/26 08:14:30;;;;;;;0.50;0.50;;;;;;;16.89;62.80;99225.78;4168491;28;20206;-59
2022/05/26 08:16:32;;;;;;;0.40;0.40;;;;;;;16.98;62.50;99229.66;4169433;28;20716;-61
2022/05/26 08:18:35;;;;;;;1.05;0.95;;;;;;;17.01;62.49;99229.94;4166765;28;20327;-59
2022/05/26 08:20:38;;;;;;;0.43;0.43;;;;;;;17.27;63.05;99229.72;4170550;28;20234;-60
2022/05/26 08:22:39;;;;;;;0.90;0.40;;;;;;;17.31;62.04;99236.31;4164113;28;20292;-59
2022/05/26 08:24:41;;;;;;;1.27;0.68;;;;;;;17.47;61.36;99228.91;4166837;28;20212;-58
2022/05/26 08:26:43;;;;;;;0.43;0.43;;;;;;;17.50;61.03;99228.34;4168319;28;20205;-61
2022/05/26 08:28:45;;;;;;;0.57;0.57;;;;;;;17.56;60.90;99227.22;4167712;28;20295;-60
2022/05/26 08:30:46;;;;;;;0.57;0.57;;;;;;;17.31;61.05;99235.53;4171049;28;20229;-59
2022/05/26 08:32:53;;;;;;;0.60;0.60;;;;;;;17.32;61.38;99232.44;4170454;28;20250;-58
2022/05/26 08:34:59;;;;;;;5.28;0.43;;;;;;;17.37;61.11;99228.88;4168554;28;20207;-58
2022/05/26 08:37:03;;;;;;;0.52;0.52;;;;;;;17.46;61.42;99232.78;4166345;28;22601;-62
2022/05/26 08:39:13;;;;;;;0.57;0.55;;;;;;;17.59;60.94;99226.69;4166518;28;20601;-62
2022/05/26 08:41:28;;;;;;;0.63;0.55;;;;;;;17.57;60.85;99239.94;4167818;28;20227;-63
2022/05/26 08:43:36;;;;;;;0.68;0.68;;;;;;;17.46;60.05;99249.38;4178327;28;20204;-60
2022/05/26 08:45:44;;;;;;;0.45;0.45;;;;;;;17.37;59.74;99243.56;4168764;28;20195;-59
2022/05/26 08:47:49;;;;;;;0.60;0.60;;;;;;;17.09;60.33;99243.22;4163810;28;20234;-60
2022/05/26 08:50:23;;;;;;;0.63;0.63;;;;;;;16.98;61.18;99249.84;4166079;28;20239;-60
2022/05/26 08:52:38;;;;;;;0.57;0.57;;;;;;;17.27;61.04;99251.00;4147506;28;20291;-61
2022/05/26 08:54:56;;;;;;;0.47;0.47;;;;;;;17.15;60.68;99259.56;4181943;23;20223;-51
2022/05/26 08:56:59;;;;;;;0.50;0.50;;;;;;;17.29;61.31;99257.91;4168767;28;20635;-51
2022/05/26 08:59:04;;;;;;;0.57;0.55;;;;;;;17.44;60.09;99265.44;4155468;28;20200;-51
2022/05/26 09:01:07;;;;;;;0.70;0.70;;;;;;;17.28;60.06;99269.25;4169846;28;20228;-52
2022/05/26 09:03:30;;;;;;;0.47;0.47;;;;;;;17.17;60.84;99267.56;4184928;28;20208;-52
2022/05/26 09:05:37;;;;;;;0.70;0.70;;;;;;;17.41;60.86;99268.75;4186138;28;20282;-51
2022/05/26 09:12:59;;;;;;;0.40;0.40;;;;;;;17.58;60.60;99285.94;4186990;28;20215;-51
2022/05/26 09:15:08;;;;;;;0.40;0.40;;;;;;;17.54;60.49;99284.81;4183990;28;20299;-52
2022/05/26 09:17:12;;;;;;;0.50;0.50;;;;;;;17.51;59.97;99279.84;4190913;28;20314;-50
2022/05/26 09:19:20;;;;;;;0.98;0.80;;;;;;;17.54;60.64;99280.13;4191195;28;20238;-50
2022/05/26 09:21:26;;;;;;;0.40;0.40;;;;;;;17.51;60.37;99285.38;4186469;28;20207;-52
2022/05/26 09:23:32;;;;;;;2.15;1.25;;;;;;;17.47;60.19;99284.25;4168008;28;20214;-51
2022/05/26 09:25:47;;;;;;;0.38;0.38;;;;;;;17.49;59.43;99282.03;4187930;28;20214;-51
2022/05/26 09:27:51;;;;;;;0.50;0.50;;;;;;;17.38;59.94;99281.19;4194000;28;20205;-51
2022/05/26 09:29:53;;;;;;;0.47;0.38;;;;;;;17.33;59.95;99291.41;4199252;28;20199;-53
2022/05/26 09:31:58;;;;;;;0.40;0.40;;;;;;;17.31;59.83;99288.09;4183421;28;20286;-53
2022/05/26 09:34:34;;;;;;;0.50;0.50;;;;;;;17.38;59.79;99291.44;4183581;28;20338;-51
2022/05/26 09:36:56;;;;;;;0.47;0.40;;;;;;;17.41;60.01;99296.41;4172804;28;20204;-52
2022/05/26 09:38:58;;;;;;;0.30;0.30;;;;;;;17.34;59.10;99295.81;4185806;28;20196;-52
2022/05/26 09:41:06;;;;;;;1.05;0.45;;;;;;;17.15;59.06;99298.28;4180959;28;20207;-50
2022/05/26 09:43:27;;;;;;;0.38;0.38;;;;;;;17.28;59.32;99296.91;4184859;28;20202;-50
2022/05/26 09:45:49;;;;;;;0.50;0.50;;;;;;;17.24;59.03;99296.63;4173548;28;20299;-51
2022/05/26 09:47:57;;;;;;;0.50;0.50;;;;;;;17.19;58.14;99298.56;4185384;28;20241;-52
2022/05/26 09:50:02;;;;;;;0.50;0.50;;;;;;;17.28;58.73;99310.75;4185678;28;20198;-52
2022/05/26 09:52:17;;;;;;;0.50;0.50;;;;;;;17.21;58.96;99308.25;4167330;28;20219;-51
2022/05/26 09:54:23;;;;;;;3.05;0.35;;;;;;;17.32;59.22;99309.13;4182240;28;20269;-51
2022/05/26 09:56:33;;;;;;;0.73;0.50;;;;;;;17.28;59.18;99319.06;4181973;28;20234;-51
2022/05/26 09:58:43;;;;;;;0.50;0.50;;;;;;;17.40;58.95;99311.38;4182334;28;20215;-52
2022/05/26 10:00:47;;;;;;;1.45;0.40;;;;;;;17.25;58.52;99325.16;4183918;28;20204;-51
2022/05/26 10:02:49;;;;;;;0.88;0.50;;;;;;;17.48;58.11;99331.03;4185658;28;20611;-51
2022/05/26 10:05:00;;;;;;;0.40;0.40;;;;;;;17.47;57.34;99325.75;4166643;28;20228;-52
2022/05/26 10:07:05;;;;;;;0.43;0.43;;;;;;;17.59;57.44;99329.09;4182812;28;20286;-53
2022/05/26 10:09:26;;;;;;;0.70;0.70;;;;;;;17.69;56.72;99320.78;4173001;28;20212;-51
2022/05/26 10:11:41;;;;;;;0.35;0.35;;;;;;;17.86;56.89;99326.91;4199392;28;20223;-51
2022/05/26 10:14:00;;;;;;;1.55;0.45;;;;;;;17.86;56.24;99329.66;4180575;28;20208;-52
2022/05/26 10:16:26;;;;;;;0.30;0.30;;;;;;;17.95;55.55;99319.69;4191145;28;20199;-51
2022/05/26 10:19:00;;;;;;;0.75;0.40;;;;;;;17.83;55.61;99317.19;4182737;28;20230;-52
2022/05/26 10:21:14;;;;;;;1.30;0.93;;;;;;;18.17;55.38;99320.19;4182652;28;20203;-53